sensor_id;sensor_type;location;lat;lon;timestamp;P1;durP1;ratioP1;P2;durP2;ratioP2
67941;SDS011;54731;42.600;23.476;2022-08-01T00:00:26;3.67;;;1.93;;
67941;SDS011;54731;42.600;23.476;2022-08-01T00:02:52;3.33;;;2.25;;
67941;SDS011;54731;42.600;23.476;2022-08-01T00:05:17;2.37;;;1.87;;
67941;SDS011;54731;42.600;23.476;2022-08-01T00:07:43;4.50;;;2.47;;
67941;SDS011;54731;42.600;23.476;2022-08-01T00:10:10;3.67;;;3.35;;
67941;SDS011;54731;42.600;23.476;2022-08-01T00:12:37;6.35;;;3.28;;
67941;SDS011;54731;42.600;23.476;2022-08-01T00:15:04;3.25;;;2.85;;
67941;SDS011;54731;42.600;23.476;2022-08-01T00:17:30;3.42;;;2.95;;
67941;SDS011;54731;42.600;23.476;2022-08-01T00:19:56;3.25;;;2.90;;
67941;SDS011;54731;42.600;23.476;2022-08-01T00:22:22;4.27;;;2.80;;
67941;SDS011;54731;42.600;23.476;2022-08-01T00:24:47;3.70;;;2.60;;
67941;SDS011;54731;42.600;23.476;2022-08-01T00:27:13;4.20;;;3.80;;
67941;SDS011;54731;42.600;23.476;2022-08-01T00:29:38;4.70;;;3.67;;
67941;SDS011;54731;42.600;23.476;2022-08-01T00:32:04;5.27;;;3.27;;
67941;SDS011;54731;42.600;23.476;2022-08-01T00:34:29;5.88;;;4.20;;
67941;SDS011;54731;42.600;23.476;2022-08-01T00:36:55;5.50;;;3.33;;
67941;SDS011;54731;42.600;23.476;2022-08-01T00:39:20;6.87;;;4.60;;
67941;SDS011;54731;42.600;23.476;2022-08-01T00:41:46;7.13;;;4.90;;
67941;SDS011;54731;42.600;23.476;2022-08-01T00:44:11;5.95;;;3.92;;
67941;SDS011;54731;42.600;23.476;2022-08-01T00:46:37;5.47;;;3.77;;
67941;SDS011;54731;42.600;23.476;2022-08-01T00:49:02;3.27;;;2.93;;
67941;SDS011;54731;42.600;23.476;2022-08-01T00:51:28;5.22;;;3.67;;
67941;SDS011;54731;42.600;23.476;2022-08-01T00:53:54;5.00;;;3.27;;
67941;SDS011;54731;42.600;23.476;2022-08-01T00:56:20;5.78;;;3.90;;
67941;SDS011;54731;42.600;23.476;2022-08-01T00:58:46;5.68;;;3.45;;
67941;SDS011;54731;42.600;23.476;2022-08-01T01:01:12;5.77;;;3.97;;
67941;SDS011;54731;42.600;23.476;2022-08-01T01:03:38;6.03;;;3.80;;
67941;SDS011;54731;42.600;23.476;2022-08-01T01:14:38;4.40;;;4.00;;
67941;SDS011;54731;42.600;23.476;2022-08-01T01:17:11;5.13;;;4.63;;
67941;SDS011;54731;42.600;23.476;2022-08-01T01:19:43;7.45;;;4.50;;
67941;SDS011;54731;42.600;23.476;2022-08-01T01:28:20;4.50;;;3.80;;
67941;SDS011;54731;42.600;23.476;2022-08-01T01:31:09;5.25;;;3.30;;
67941;SDS011;54731;42.600;23.476;2022-08-01T01:33:37;6.15;;;3.53;;
67941;SDS011;54731;42.600;23.476;2022-08-01T01:36:05;5.18;;;2.70;;
67941;SDS011;54731;42.600;23.476;2022-08-01T01:38:36;3.45;;;2.47;;
67941;SDS011;54731;42.600;23.476;2022-08-01T01:41:07;2.70;;;2.15;;
67941;SDS011;54731;42.600;23.476;2022-08-01T01:43:35;4.07;;;2.63;;
67941;SDS011;54731;42.600;23.476;2022-08-01T01:46:02;3.45;;;1.98;;
67941;SDS011;54731;42.600;23.476;2022-08-01T01:48:29;3.40;;;1.98;;
67941;SDS011;54731;42.600;23.476;2022-08-01T01:50:57;3.67;;;2.00;;
67941;SDS011;54731;42.600;23.476;2022-08-01T01:53:24;3.97;;;1.80;;
67941;SDS011;54731;42.600;23.476;2022-08-01T01:55:52;3.45;;;1.70;;
67941;SDS011;54731;42.600;23.476;2022-08-01T01:58:20;3.67;;;1.95;;
67941;SDS011;54731;42.600;23.476;2022-08-01T02:00:48;3.05;;;1.60;;
67941;SDS011;54731;42.600;23.476;2022-08-01T02:03:17;4.97;;;1.73;;
67941;SDS011;54731;42.600;23.476;2022-08-01T02:05:44;2.40;;;1.58;;
67941;SDS011;54731;42.600;23.476;2022-08-01T02:08:13;2.08;;;1.50;;
67941;SDS011;54731;42.600;23.476;2022-08-01T02:10:40;3.58;;;1.50;;
67941;SDS011;54731;42.600;23.476;2022-08-01T02:13:06;1.90;;;1.60;;
67941;SDS011;54731;42.600;23.476;2022-08-01T02:15:32;4.63;;;1.40;;
67941;SDS011;54731;42.600;23.476;2022-08-01T02:18:04;2.03;;;1.40;;
67941;SDS011;54731;42.600;23.476;2022-08-01T02:20:31;2.85;;;1.60;;
67941;SDS011;54731;42.600;23.476;2022-08-01T02:23:04;4.43;;;1.40;;
67941;SDS011;54731;42.600;23.476;2022-08-01T02:25:44;1.80;;;1.35;;
67941;SDS011;54731;42.600;23.476;2022-08-01T02:30:41;2.20;;;1.55;;
67941;SDS011;54731;42.600;23.476;2022-08-01T02:33:18;3.60;;;1.75;;
67941;SDS011;54731;42.600;23.476;2022-08-01T02:35:48;5.80;;;1.63;;
67941;SDS011;54731;42.600;23.476;2022-08-01T02:38:17;3.38;;;1.75;;
67941;SDS011;54731;42.600;23.476;2022-08-01T02:40:45;2.10;;;1.70;;
67941;SDS011;54731;42.600;23.476;2022-08-01T02:43:15;2.25;;;1.45;;
67941;SDS011;54731;42.600;23.476;2022-08-01T02:45:45;1.88;;;1.08;;
67941;SDS011;54731;42.600;23.476;2022-08-01T02:48:15;2.53;;;1.23;;
67941;SDS011;54731;42.600;23.476;2022-08-01T02:50:44;2.97;;;1.40;;
67941;SDS011;54731;42.600;23.476;2022-08-01T02:53:12;2.00;;;1.33;;
67941;SDS011;54731;42.600;23.476;2022-08-01T02:55:39;3.63;;;1.17;;
67941;SDS011;54731;42.600;23.476;2022-08-01T02:58:06;3.97;;;1.70;;
67941;SDS011;54731;42.600;23.476;2022-08-01T03:00:33;4.83;;;1.90;;
67941;SDS011;54731;42.600;23.476;2022-08-01T03:03:00;3.15;;;2.00;;
67941;SDS011;54731;42.600;23.476;2022-08-01T03:05:28;3.40;;;1.65;;
67941;SDS011;54731;42.600;23.476;2022-08-01T03:07:57;5.82;;;1.92;;
67941;SDS011;54731;42.600;23.476;2022-08-01T03:10:24;3.15;;;1.50;;
67941;SDS011;54731;42.600;23.476;2022-08-01T03:12:53;6.93;;;1.80;;
67941;SDS011;54731;42.600;23.476;2022-08-01T03:15:19;1.90;;;1.55;;
67941;SDS011;54731;42.600;23.476;2022-08-01T03:17:46;2.78;;;1.92;;
67941;SDS011;54731;42.600;23.476;2022-08-01T03:20:14;2.67;;;1.85;;
67941;SDS011;54731;42.600;23.476;2022-08-01T03:22:43;4.28;;;2.20;;
67941;SDS011;54731;42.600;23.476;2022-08-01T03:25:10;3.33;;;2.10;;
67941;SDS011;54731;42.600;23.476;2022-08-01T03:27:39;3.78;;;2.22;;
67941;SDS011;54731;42.600;23.476;2022-08-01T03:30:06;4.00;;;3.33;;
67941;SDS011;54731;42.600;23.476;2022-08-01T03:32:32;4.15;;;2.78;;
67941;SDS011;54731;42.600;23.476;2022-08-01T03:34:58;4.35;;;2.70;;
67941;SDS011;54731;42.600;23.476;2022-08-01T03:37:25;5.07;;;2.65;;
67941;SDS011;54731;42.600;23.476;2022-08-01T03:39:57;3.30;;;2.00;;
67941;SDS011;54731;42.600;23.476;2022-08-01T03:45:31;2.03;;;1.33;;
67941;SDS011;54731;42.600;23.476;2022-08-01T03:48:15;2.88;;;1.38;;
67941;SDS011;54731;42.600;23.476;2022-08-01T03:50:44;2.10;;;1.25;;
67941;SDS011;54731;42.600;23.476;2022-08-01T03:53:13;5.20;;;1.52;;
67941;SDS011;54731;42.600;23.476;2022-08-01T03:55:41;3.27;;;1.50;;
67941;SDS011;54731;42.600;23.476;2022-08-01T03:58:08;2.67;;;1.80;;
67941;SDS011;54731;42.600;23.476;2022-08-01T04:00:36;4.95;;;1.50;;
67941;SDS011;54731;42.600;23.476;2022-08-01T04:03:06;2.90;;;1.67;;
67941;SDS011;54731;42.600;23.476;2022-08-01T04:05:32;3.22;;;1.77;;
67941;SDS011;54731;42.600;23.476;2022-08-01T04:07:58;1.80;;;1.27;;
67941;SDS011;54731;42.600;23.476;2022-08-01T04:10:26;3.70;;;1.90;;
67941;SDS011;54731;42.600;23.476;2022-08-01T04:12:52;2.67;;;1.57;;
67941;SDS011;54731;42.600;23.476;2022-08-01T04:15:17;4.00;;;1.60;;
67941;SDS011;54731;42.600;23.476;2022-08-01T04:17:45;3.73;;;1.60;;
67941;SDS011;54731;42.600;23.476;2022-08-01T04:20:11;2.28;;;1.70;;
67941;SDS011;54731;42.600;23.476;2022-08-01T04:22:37;4.28;;;1.77;;
67941;SDS011;54731;42.600;23.476;2022-08-01T04:25:04;3.15;;;2.20;;
67941;SDS011;54731;42.600;23.476;2022-08-01T04:27:35;3.20;;;2.00;;
67941;SDS011;54731;42.600;23.476;2022-08-01T04:30:03;5.05;;;2.88;;
67941;SDS011;54731;42.600;23.476;2022-08-01T04:32:31;3.95;;;3.13;;
67941;SDS011;54731;42.600;23.476;2022-08-01T04:35:00;3.90;;;3.13;;
67941;SDS011;54731;42.600;23.476;2022-08-01T04:37:30;5.95;;;2.97;;
67941;SDS011;54731;42.600;23.476;2022-08-01T04:39:56;4.80;;;2.42;;
67941;SDS011;54731;42.600;23.476;2022-08-01T04:42:24;6.55;;;2.90;;
67941;SDS011;54731;42.600;23.476;2022-08-01T04:44:50;10.73;;;3.73;;
67941;SDS011;54731;42.600;23.476;2022-08-01T04:47:15;7.00;;;3.72;;
67941;SDS011;54731;42.600;23.476;2022-08-01T04:49:42;8.98;;;4.00;;
67941;SDS011;54731;42.600;23.476;2022-08-01T04:52:10;7.63;;;4.00;;
67941;SDS011;54731;42.600;23.476;2022-08-01T04:54:37;4.30;;;3.77;;
67941;SDS011;54731;42.600;23.476;2022-08-01T04:57:03;6.03;;;4.32;;
67941;SDS011;54731;42.600;23.476;2022-08-01T04:59:30;11.90;;;4.27;;
67941;SDS011;54731;42.600;23.476;2022-08-01T05:02:17;4.85;;;4.15;;
67941;SDS011;54731;42.600;23.476;2022-08-01T05:04:45;7.55;;;4.07;;
67941;SDS011;54731;42.600;23.476;2022-08-01T05:07:11;4.82;;;3.60;;
67941;SDS011;54731;42.600;23.476;2022-08-01T05:09:40;4.22;;;2.97;;
67941;SDS011;54731;42.600;23.476;2022-08-01T05:12:07;5.43;;;3.47;;
67941;SDS011;54731;42.600;23.476;2022-08-01T05:14:33;6.18;;;3.17;;
67941;SDS011;54731;42.600;23.476;2022-08-01T05:17:00;3.85;;;3.30;;
67941;SDS011;54731;42.600;23.476;2022-08-01T05:19:32;4.88;;;3.38;;
67941;SDS011;54731;42.600;23.476;2022-08-01T05:21:59;3.90;;;3.13;;
67941;SDS011;54731;42.600;23.476;2022-08-01T05:24:26;6.07;;;3.38;;
67941;SDS011;54731;42.600;23.476;2022-08-01T05:26:55;5.22;;;3.00;;
67941;SDS011;54731;42.600;23.476;2022-08-01T05:29:20;5.72;;;3.47;;
67941;SDS011;54731;42.600;23.476;2022-08-01T05:31:46;4.10;;;3.27;;
67941;SDS011;54731;42.600;23.476;2022-08-01T05:34:12;10.13;;;4.13;;
67941;SDS011;54731;42.600;23.476;2022-08-01T05:36:38;5.10;;;3.90;;
67941;SDS011;54731;42.600;23.476;2022-08-01T05:39:04;4.90;;;3.17;;
67941;SDS011;54731;42.600;23.476;2022-08-01T05:41:29;6.53;;;3.27;;
67941;SDS011;54731;42.600;23.476;2022-08-01T05:43:55;5.65;;;3.25;;
67941;SDS011;54731;42.600;23.476;2022-08-01T05:46:21;6.43;;;3.43;;
67941;SDS011;54731;42.600;23.476;2022-08-01T05:48:46;6.28;;;3.30;;
67941;SDS011;54731;42.600;23.476;2022-08-01T05:51:12;6.27;;;3.60;;
67941;SDS011;54731;42.600;23.476;2022-08-01T05:53:37;4.53;;;3.10;;
67941;SDS011;54731;42.600;23.476;2022-08-01T05:56:03;4.83;;;3.47;;
67941;SDS011;54731;42.600;23.476;2022-08-01T05:58:28;7.85;;;3.53;;
67941;SDS011;54731;42.600;23.476;2022-08-01T06:00:54;7.27;;;2.90;;
67941;SDS011;54731;42.600;23.476;2022-08-01T06:03:19;6.10;;;3.13;;
67941;SDS011;54731;42.600;23.476;2022-08-01T06:05:45;8.65;;;3.47;;
67941;SDS011;54731;42.600;23.476;2022-08-01T06:08:10;4.47;;;3.30;;
67941;SDS011;54731;42.600;23.476;2022-08-01T06:10:36;10.00;;;3.70;;
67941;SDS011;54731;42.600;23.476;2022-08-01T06:13:01;6.70;;;3.33;;
67941;SDS011;54731;42.600;23.476;2022-08-01T06:15:31;6.50;;;3.55;;
67941;SDS011;54731;42.600;23.476;2022-08-01T06:17:58;6.75;;;3.60;;
67941;SDS011;54731;42.600;23.476;2022-08-01T06:20:24;5.22;;;3.50;;
67941;SDS011;54731;42.600;23.476;2022-08-01T06:22:49;9.43;;;3.80;;
67941;SDS011;54731;42.600;23.476;2022-08-01T06:25:16;6.60;;;3.92;;
67941;SDS011;54731;42.600;23.476;2022-08-01T06:27:42;6.32;;;3.45;;
67941;SDS011;54731;42.600;23.476;2022-08-01T06:30:08;7.70;;;3.25;;
67941;SDS011;54731;42.600;23.476;2022-08-01T06:32:34;6.77;;;3.73;;
67941;SDS011;54731;42.600;23.476;2022-08-01T06:34:59;7.70;;;3.45;;
67941;SDS011;54731;42.600;23.476;2022-08-01T06:37:28;6.77;;;3.40;;
67941;SDS011;54731;42.600;23.476;2022-08-01T06:39:55;6.43;;;3.15;;
67941;SDS011;54731;42.600;23.476;2022-08-01T06:42:20;4.70;;;3.23;;
67941;SDS011;54731;42.600;23.476;2022-08-01T06:44:46;7.00;;;3.23;;
67941;SDS011;54731;42.600;23.476;2022-08-01T06:47:11;8.67;;;3.93;;
67941;SDS011;54731;42.600;23.476;2022-08-01T06:49:37;6.13;;;2.90;;
67941;SDS011;54731;42.600;23.476;2022-08-01T06:52:02;6.60;;;2.63;;
67941;SDS011;54731;42.600;23.476;2022-08-01T06:54:28;5.45;;;2.58;;
67941;SDS011;54731;42.600;23.476;2022-08-01T06:56:54;7.90;;;2.87;;
67941;SDS011;54731;42.600;23.476;2022-08-01T06:59:19;4.27;;;2.37;;
67941;SDS011;54731;42.600;23.476;2022-08-01T07:01:45;2.90;;;1.80;;
67941;SDS011;54731;42.600;23.476;2022-08-01T07:04:10;4.33;;;2.30;;
67941;SDS011;54731;42.600;23.476;2022-08-01T07:06:36;3.20;;;2.07;;
67941;SDS011;54731;42.600;23.476;2022-08-01T07:09:01;4.57;;;2.30;;
67941;SDS011;54731;42.600;23.476;2022-08-01T07:11:28;4.15;;;2.58;;
67941;SDS011;54731;42.600;23.476;2022-08-01T07:13:54;4.10;;;2.17;;
67941;SDS011;54731;42.600;23.476;2022-08-01T07:16:19;4.45;;;2.00;;
67941;SDS011;54731;42.600;23.476;2022-08-01T07:18:44;4.63;;;3.03;;
67941;SDS011;54731;42.600;23.476;2022-08-01T07:21:10;6.90;;;2.53;;
67941;SDS011;54731;42.600;23.476;2022-08-01T07:23:36;2.70;;;2.40;;
67941;SDS011;54731;42.600;23.476;2022-08-01T07:26:02;4.93;;;2.70;;
67941;SDS011;54731;42.600;23.476;2022-08-01T07:28:28;6.20;;;2.72;;
67941;SDS011;54731;42.600;23.476;2022-08-01T07:30:54;4.83;;;2.50;;
67941;SDS011;54731;42.600;23.476;2022-08-01T07:33:19;8.70;;;2.50;;
67941;SDS011;54731;42.600;23.476;2022-08-01T07:35:44;4.80;;;2.90;;
67941;SDS011;54731;42.600;23.476;2022-08-01T07:38:10;6.20;;;3.23;;
67941;SDS011;54731;42.600;23.476;2022-08-01T07:40:36;2.83;;;2.30;;
67941;SDS011;54731;42.600;23.476;2022-08-01T07:43:02;5.55;;;2.60;;
67941;SDS011;54731;42.600;23.476;2022-08-01T07:45:28;4.45;;;2.60;;
67941;SDS011;54731;42.600;23.476;2022-08-01T07:47:53;5.90;;;2.40;;
67941;SDS011;54731;42.600;23.476;2022-08-01T07:50:19;3.70;;;2.60;;
67941;SDS011;54731;42.600;23.476;2022-08-01T07:52:44;2.75;;;2.15;;
67941;SDS011;54731;42.600;23.476;2022-08-01T07:55:10;5.18;;;2.38;;
67941;SDS011;54731;42.600;23.476;2022-08-01T07:57:36;3.72;;;2.60;;
67941;SDS011;54731;42.600;23.476;2022-08-01T08:00:03;5.78;;;2.17;;
67941;SDS011;54731;42.600;23.476;2022-08-01T08:02:30;4.00;;;2.08;;
67941;SDS011;54731;42.600;23.476;2022-08-01T08:04:55;5.87;;;2.43;;
67941;SDS011;54731;42.600;23.476;2022-08-01T08:07:21;5.13;;;1.85;;
67941;SDS011;54731;42.600;23.476;2022-08-01T08:09:46;8.52;;;2.28;;
67941;SDS011;54731;42.600;23.476;2022-08-01T08:12:12;6.80;;;2.17;;
67941;SDS011;54731;42.600;23.476;2022-08-01T08:14:37;7.00;;;2.33;;
67941;SDS011;54731;42.600;23.476;2022-08-01T08:17:03;4.03;;;2.20;;
67941;SDS011;54731;42.600;23.476;2022-08-01T08:19:30;4.18;;;2.20;;
67941;SDS011;54731;42.600;23.476;2022-08-01T08:21:58;7.97;;;2.08;;
67941;SDS011;54731;42.600;23.476;2022-08-01T08:24:23;3.28;;;2.08;;
67941;SDS011;54731;42.600;23.476;2022-08-01T08:26:53;2.95;;;2.22;;
67941;SDS011;54731;42.600;23.476;2022-08-01T08:29:21;6.40;;;2.40;;
67941;SDS011;54731;42.600;23.476;2022-08-01T08:31:47;5.47;;;2.25;;
67941;SDS011;54731;42.600;23.476;2022-08-01T08:34:12;2.53;;;2.10;;
67941;SDS011;54731;42.600;23.476;2022-08-01T08:36:38;3.90;;;2.20;;
67941;SDS011;54731;42.600;23.476;2022-08-01T08:39:04;5.23;;;2.43;;
67941;SDS011;54731;42.600;23.476;2022-08-01T08:41:30;3.28;;;2.28;;
67941;SDS011;54731;42.600;23.476;2022-08-01T08:43:57;4.18;;;2.05;;
67941;SDS011;54731;42.600;23.476;2022-08-01T08:46:25;2.72;;;2.08;;
67941;SDS011;54731;42.600;23.476;2022-08-01T08:48:52;5.13;;;1.95;;
67941;SDS011;54731;42.600;23.476;2022-08-01T08:51:18;3.63;;;2.37;;
67941;SDS011;54731;42.600;23.476;2022-08-01T08:53:44;2.92;;;2.08;;
67941;SDS011;54731;42.600;23.476;2022-08-01T08:56:12;4.38;;;2.20;;
67941;SDS011;54731;42.600;23.476;2022-08-01T08:58:38;3.40;;;2.08;;
67941;SDS011;54731;42.600;23.476;2022-08-01T09:01:06;4.67;;;2.30;;
67941;SDS011;54731;42.600;23.476;2022-08-01T09:03:35;3.17;;;2.08;;
67941;SDS011;54731;42.600;23.476;2022-08-01T09:06:01;3.17;;;2.25;;
67941;SDS011;54731;42.600;23.476;2022-08-01T09:08:26;4.30;;;2.20;;
67941;SDS011;54731;42.600;23.476;2022-08-01T09:10:52;5.33;;;2.70;;
67941;SDS011;54731;42.600;23.476;2022-08-01T09:13:17;5.20;;;2.15;;
67941;SDS011;54731;42.600;23.476;2022-08-01T09:15:47;3.67;;;2.47;;
67941;SDS011;54731;42.600;23.476;2022-08-01T09:23:31;2.93;;;2.30;;
67941;SDS011;54731;42.600;23.476;2022-08-01T09:25:58;5.20;;;2.25;;
67941;SDS011;54731;42.600;23.476;2022-08-01T09:28:27;3.57;;;2.20;;
67941;SDS011;54731;42.600;23.476;2022-08-01T09:30:55;4.07;;;1.92;;
67941;SDS011;54731;42.600;23.476;2022-08-01T09:33:21;3.40;;;1.85;;
67941;SDS011;54731;42.600;23.476;2022-08-01T09:35:46;2.23;;;1.77;;
67941;SDS011;54731;42.600;23.476;2022-08-01T09:38:21;3.67;;;1.90;;
67941;SDS011;54731;42.600;23.476;2022-08-01T09:40:55;3.38;;;2.00;;
67941;SDS011;54731;42.600;23.476;2022-08-01T09:43:26;4.15;;;2.03;;
67941;SDS011;54731;42.600;23.476;2022-08-01T09:45:53;3.38;;;2.05;;
67941;SDS011;54731;42.600;23.476;2022-08-01T09:48:20;3.55;;;1.90;;
67941;SDS011;54731;42.600;23.476;2022-08-01T09:50:48;2.88;;;1.80;;
67941;SDS011;54731;42.600;23.476;2022-08-01T09:53:14;2.28;;;1.48;;
67941;SDS011;54731;42.600;23.476;2022-08-01T09:55:41;2.25;;;1.52;;
67941;SDS011;54731;42.600;23.476;2022-08-01T09:58:07;3.60;;;1.40;;
67941;SDS011;54731;42.600;23.476;2022-08-01T10:00:34;4.43;;;1.58;;
67941;SDS011;54731;42.600;23.476;2022-08-01T10:03:00;3.65;;;1.52;;
67941;SDS011;54731;42.600;23.476;2022-08-01T10:05:44;2.30;;;1.90;;
67941;SDS011;54731;42.600;23.476;2022-08-01T10:08:10;4.00;;;1.50;;
67941;SDS011;54731;42.600;23.476;2022-08-01T10:10:37;3.75;;;1.80;;
67941;SDS011;54731;42.600;23.476;2022-08-01T10:13:03;5.93;;;1.87;;
67941;SDS011;54731;42.600;23.476;2022-08-01T10:15:29;3.63;;;1.80;;
67941;SDS011;54731;42.600;23.476;2022-08-01T10:17:56;4.38;;;2.25;;
67941;SDS011;54731;42.600;23.476;2022-08-01T10:20:27;3.97;;;2.80;;
67941;SDS011;54731;42.600;23.476;2022-08-01T10:22:55;3.67;;;2.55;;
67941;SDS011;54731;42.600;23.476;2022-08-01T10:25:23;3.88;;;2.47;;
67941;SDS011;54731;42.600;23.476;2022-08-01T10:27:53;4.13;;;2.15;;
67941;SDS011;54731;42.600;23.476;2022-08-01T10:30:23;4.07;;;2.17;;
67941;SDS011;54731;42.600;23.476;2022-08-01T10:32:49;2.90;;;1.73;;
67941;SDS011;54731;42.600;23.476;2022-08-01T10:35:17;5.90;;;2.65;;
67941;SDS011;54731;42.600;23.476;2022-08-01T10:37:44;4.30;;;2.28;;
67941;SDS011;54731;42.600;23.476;2022-08-01T10:40:15;6.65;;;2.20;;
67941;SDS011;54731;42.600;23.476;2022-08-01T10:42:42;6.30;;;2.30;;
67941;SDS011;54731;42.600;23.476;2022-08-01T10:45:12;6.25;;;2.20;;
67941;SDS011;54731;42.600;23.476;2022-08-01T10:50:47;4.53;;;2.03;;
67941;SDS011;54731;42.600;23.476;2022-08-01T10:58:22;2.38;;;2.10;;
67941;SDS011;54731;42.600;23.476;2022-08-01T11:00:49;5.10;;;2.10;;
67941;SDS011;54731;42.600;23.476;2022-08-01T11:06:25;3.03;;;1.85;;
67941;SDS011;54731;42.600;23.476;2022-08-01T11:08:53;3.37;;;2.40;;
67941;SDS011;54731;42.600;23.476;2022-08-01T11:11:20;3.17;;;1.98;;
67941;SDS011;54731;42.600;23.476;2022-08-01T11:16:28;3.97;;;2.20;;
67941;SDS011;54731;42.600;23.476;2022-08-01T11:18:55;4.47;;;1.88;;
67941;SDS011;54731;42.600;23.476;2022-08-01T11:21:21;3.60;;;1.73;;
67941;SDS011;54731;42.600;23.476;2022-08-01T11:23:51;3.15;;;1.70;;
67941;SDS011;54731;42.600;23.476;2022-08-01T11:26:18;2.33;;;1.90;;
67941;SDS011;54731;42.600;23.476;2022-08-01T11:28:46;8.47;;;1.83;;
67941;SDS011;54731;42.600;23.476;2022-08-01T11:31:32;3.40;;;2.08;;
67941;SDS011;54731;42.600;23.476;2022-08-01T11:33:58;2.75;;;2.00;;
67941;SDS011;54731;42.600;23.476;2022-08-01T11:36:24;2.83;;;2.47;;
67941;SDS011;54731;42.600;23.476;2022-08-01T11:41:26;5.65;;;2.15;;
67941;SDS011;54731;42.600;23.476;2022-08-01T11:44:07;4.53;;;1.90;;
67941;SDS011;54731;42.600;23.476;2022-08-01T11:54:56;2.65;;;2.15;;
67941;SDS011;54731;42.600;23.476;2022-08-01T11:57:24;8.77;;;3.35;;
67941;SDS011;54731;42.600;23.476;2022-08-01T11:59:53;6.85;;;2.00;;
67941;SDS011;54731;42.600;23.476;2022-08-01T12:02:29;2.60;;;1.98;;
67941;SDS011;54731;42.600;23.476;2022-08-01T12:04:58;2.42;;;2.00;;
67941;SDS011;54731;42.600;23.476;2022-08-01T12:07:26;2.25;;;2.00;;
67941;SDS011;54731;42.600;23.476;2022-08-01T12:10:04;3.08;;;1.90;;
67941;SDS011;54731;42.600;23.476;2022-08-01T12:12:40;2.97;;;2.10;;
67941;SDS011;54731;42.600;23.476;2022-08-01T12:15:09;4.30;;;2.35;;
67941;SDS011;54731;42.600;23.476;2022-08-01T12:17:35;2.42;;;2.10;;
67941;SDS011;54731;42.600;23.476;2022-08-01T12:20:03;4.22;;;1.90;;
67941;SDS011;54731;42.600;23.476;2022-08-01T12:22:31;3.88;;;1.73;;
67941;SDS011;54731;42.600;23.476;2022-08-01T12:25:04;5.80;;;2.00;;
67941;SDS011;54731;42.600;23.476;2022-08-01T12:27:34;4.47;;;1.98;;
67941;SDS011;54731;42.600;23.476;2022-08-01T12:30:00;5.13;;;2.28;;
67941;SDS011;54731;42.600;23.476;2022-08-01T12:35:10;2.70;;;2.13;;
67941;SDS011;54731;42.600;23.476;2022-08-01T12:37:44;4.13;;;2.00;;
67941;SDS011;54731;42.600;23.476;2022-08-01T12:42:50;2.60;;;2.30;;
67941;SDS011;54731;42.600;23.476;2022-08-01T12:45:18;2.95;;;2.47;;
67941;SDS011;54731;42.600;23.476;2022-08-01T12:47:48;3.57;;;2.10;;
67941;SDS011;54731;42.600;23.476;2022-08-01T12:50:16;2.45;;;2.25;;
67941;SDS011;54731;42.600;23.476;2022-08-01T12:52:44;2.65;;;2.45;;
67941;SDS011;54731;42.600;23.476;2022-08-01T12:55:11;6.07;;;2.20;;
67941;SDS011;54731;42.600;23.476;2022-08-01T12:57:40;3.88;;;2.03;;
67941;SDS011;54731;42.600;23.476;2022-08-01T13:02:33;2.80;;;2.22;;
67941;SDS011;54731;42.600;23.476;2022-08-01T13:04:59;2.53;;;2.33;;
67941;SDS011;54731;42.600;23.476;2022-08-01T13:07:38;3.72;;;2.40;;
67941;SDS011;54731;42.600;23.476;2022-08-01T13:10:04;3.03;;;2.72;;
67941;SDS011;54731;42.600;23.476;2022-08-01T13:12:30;3.87;;;2.23;;
67941;SDS011;54731;42.600;23.476;2022-08-01T13:14:55;4.45;;;2.40;;
67941;SDS011;54731;42.600;23.476;2022-08-01T13:17:33;2.70;;;2.40;;
67941;SDS011;54731;42.600;23.476;2022-08-01T13:20:03;3.63;;;2.00;;
67941;SDS011;54731;42.600;23.476;2022-08-01T13:22:33;4.22;;;2.35;;
67941;SDS011;54731;42.600;23.476;2022-08-01T13:25:10;5.90;;;2.63;;
67941;SDS011;54731;42.600;23.476;2022-08-01T13:27:39;3.58;;;2.35;;
67941;SDS011;54731;42.600;23.476;2022-08-01T13:30:18;2.38;;;2.17;;
67941;SDS011;54731;42.600;23.476;2022-08-01T13:32:59;3.42;;;2.50;;
67941;SDS011;54731;42.600;23.476;2022-08-01T13:35:25;3.40;;;2.28;;
67941;SDS011;54731;42.600;23.476;2022-08-01T13:37:51;3.13;;;2.20;;
67941;SDS011;54731;42.600;23.476;2022-08-01T13:40:26;2.60;;;2.40;;
67941;SDS011;54731;42.600;23.476;2022-08-01T13:42:53;3.30;;;2.75;;
67941;SDS011;54731;42.600;23.476;2022-08-01T13:45:21;8.73;;;2.55;;
67941;SDS011;54731;42.600;23.476;2022-08-01T13:47:47;2.80;;;2.50;;
67941;SDS011;54731;42.600;23.476;2022-08-01T13:50:13;2.70;;;2.43;;
67941;SDS011;54731;42.600;23.476;2022-08-01T13:52:39;3.25;;;2.50;;
67941;SDS011;54731;42.600;23.476;2022-08-01T13:55:05;3.45;;;2.75;;
67941;SDS011;54731;42.600;23.476;2022-08-01T13:57:31;6.53;;;2.70;;
67941;SDS011;54731;42.600;23.476;2022-08-01T13:59:56;5.25;;;2.40;;
67941;SDS011;54731;42.600;23.476;2022-08-01T14:02:25;2.30;;;2.10;;
67941;SDS011;54731;42.600;23.476;2022-08-01T14:04:52;6.55;;;2.40;;
67941;SDS011;54731;42.600;23.476;2022-08-01T14:07:19;11.65;;;3.58;;
67941;SDS011;54731;42.600;23.476;2022-08-01T14:09:45;7.43;;;2.28;;
67941;SDS011;54731;42.600;23.476;2022-08-01T14:12:11;2.73;;;2.43;;
67941;SDS011;54731;42.600;23.476;2022-08-01T14:14:36;5.70;;;2.40;;
67941;SDS011;54731;42.600;23.476;2022-08-01T14:17:03;4.75;;;2.55;;
67941;SDS011;54731;42.600;23.476;2022-08-01T14:19:29;3.67;;;2.55;;
67941;SDS011;54731;42.600;23.476;2022-08-01T14:21:55;4.15;;;2.38;;
67941;SDS011;54731;42.600;23.476;2022-08-01T14:24:22;2.22;;;2.00;;
67941;SDS011;54731;42.600;23.476;2022-08-01T14:26:48;9.00;;;2.50;;
67941;SDS011;54731;42.600;23.476;2022-08-01T14:29:14;2.42;;;2.00;;
67941;SDS011;54731;42.600;23.476;2022-08-01T14:31:40;2.30;;;2.10;;
67941;SDS011;54731;42.600;23.476;2022-08-01T14:34:05;3.80;;;2.30;;
67941;SDS011;54731;42.600;23.476;2022-08-01T14:36:31;2.90;;;2.37;;
67941;SDS011;54731;42.600;23.476;2022-08-01T14:38:56;4.30;;;2.03;;
67941;SDS011;54731;42.600;23.476;2022-08-01T14:41:22;2.65;;;1.98;;
67941;SDS011;54731;42.600;23.476;2022-08-01T14:43:47;3.27;;;2.07;;
67941;SDS011;54731;42.600;23.476;2022-08-01T14:46:13;2.87;;;2.00;;
67941;SDS011;54731;42.600;23.476;2022-08-01T14:48:38;3.43;;;2.10;;
67941;SDS011;54731;42.600;23.476;2022-08-01T14:51:04;6.15;;;2.13;;
67941;SDS011;54731;42.600;23.476;2022-08-01T14:53:32;4.50;;;2.37;;
67941;SDS011;54731;42.600;23.476;2022-08-01T14:55:58;4.53;;;2.20;;
67941;SDS011;54731;42.600;23.476;2022-08-01T14:58:23;3.47;;;2.80;;
67941;SDS011;54731;42.600;23.476;2022-08-01T15:00:49;3.58;;;2.22;;
67941;SDS011;54731;42.600;23.476;2022-08-01T15:03:14;2.67;;;2.40;;
67941;SDS011;54731;42.600;23.476;2022-08-01T15:05:40;2.58;;;2.22;;
67941;SDS011;54731;42.600;23.476;2022-08-01T15:08:05;3.63;;;2.30;;
67941;SDS011;54731;42.600;23.476;2022-08-01T15:10:31;3.30;;;2.30;;
67941;SDS011;54731;42.600;23.476;2022-08-01T15:12:57;4.78;;;2.47;;
67941;SDS011;54731;42.600;23.476;2022-08-01T15:15:25;2.80;;;2.60;;
67941;SDS011;54731;42.600;23.476;2022-08-01T15:17:51;7.00;;;2.47;;
67941;SDS011;54731;42.600;23.476;2022-08-01T15:20:17;4.90;;;2.33;;
67941;SDS011;54731;42.600;23.476;2022-08-01T15:22:43;6.30;;;2.72;;
67941;SDS011;54731;42.600;23.476;2022-08-01T15:25:08;4.87;;;2.07;;
67941;SDS011;54731;42.600;23.476;2022-08-01T15:27:34;8.02;;;2.22;;
67941;SDS011;54731;42.600;23.476;2022-08-01T15:30:00;3.03;;;2.70;;
67941;SDS011;54731;42.600;23.476;2022-08-01T15:32:26;3.42;;;2.50;;